createdAt,value
2018-03-31T00:00:33.888Z,6.17
2018-03-31T00:03:00.682Z,6.53
2018-03-31T00:05:27.935Z,6.10
2018-03-31T00:07:54.676Z,7.00
2018-03-31T00:10:23.103Z,6.50
2018-03-31T00:12:49.900Z,6.10
2018-03-31T00:15:16.652Z,6.47
2018-03-31T00:17:43.383Z,6.87
2018-03-31T00:20:10.840Z,6.63
2018-03-31T00:22:37.684Z,6.83
2018-03-31T00:25:04.835Z,9.17
2018-03-31T00:27:32.191Z,7.63
2018-03-31T00:29:58.938Z,8.67
2018-03-31T00:32:25.787Z,10.10
2018-03-31T00:34:52.517Z,10.17
2018-03-31T00:37:20.700Z,8.90
2018-03-31T00:39:48.870Z,9.03
2018-03-31T00:42:16.121Z,11.13
2018-03-31T00:44:42.861Z,9.73
2018-03-31T00:47:09.706Z,9.80
2018-03-31T00:49:36.457Z,11.37
2018-03-31T00:52:03.392Z,9.17
2018-03-31T00:54:30.237Z,11.03
2018-03-31T00:56:58.456Z,10.47
2018-03-31T00:59:25.260Z,10.27
2018-03-31T01:01:52.100Z,11.10
2018-03-31T01:04:19.864Z,8.93
2018-03-31T01:06:46.958Z,9.23
2018-03-31T01:09:13.757Z,9.00
2018-03-31T01:11:40.601Z,11.13
2018-03-31T01:14:07.855Z,10.10
2018-03-31T01:16:34.595Z,9.57
2018-03-31T01:19:01.848Z,8.77
2018-03-31T01:21:28.692Z,9.10
2018-03-31T01:23:55.439Z,4.93
2018-03-31T01:26:23.101Z,7.17
2018-03-31T01:28:49.946Z,7.33
2018-03-31T01:31:17.140Z,6.83
2018-03-31T01:33:43.833Z,6.67
2018-03-31T01:36:10.512Z,6.60
2018-03-31T01:38:41.783Z,5.73
2018-03-31T01:41:08.565Z,6.17
2018-03-31T01:43:35.245Z,6.40
2018-03-31T01:46:02.046Z,4.50
2018-03-31T01:48:29.143Z,6.30
2018-03-31T01:50:57.268Z,5.53
2018-03-31T01:53:24.015Z,4.57
2018-03-31T01:55:50.854Z,5.77
2018-03-31T01:58:20.058Z,6.03
2018-03-31T02:00:46.793Z,4.70
2018-03-31T02:03:13.536Z,5.33
2018-03-31T02:05:41.402Z,5.60
2018-03-31T02:08:08.247Z,4.87
2018-03-31T02:10:34.986Z,5.97
2018-03-31T02:13:02.384Z,4.07
2018-03-31T02:15:29.191Z,5.43
2018-03-31T02:17:56.035Z,4.67
2018-03-31T02:20:23.801Z,5.90
2018-03-31T02:23:06.079Z,5.10
2018-03-31T02:25:36.381Z,5.67
2018-03-31T02:28:03.169Z,5.83
2018-03-31T02:30:29.918Z,5.33
2018-03-31T02:32:56.759Z,5.03
2018-03-31T02:35:24.836Z,6.80
2018-03-31T02:37:51.676Z,5.77
2018-03-31T02:40:18.413Z,5.47
2018-03-31T02:42:45.153Z,5.57
2018-03-31T02:45:11.900Z,5.70
2018-03-31T02:47:38.589Z,5.30
2018-03-31T02:50:05.378Z,5.60
2018-03-31T02:52:32.170Z,5.77
2018-03-31T02:54:58.970Z,4.43
2018-03-31T02:57:25.704Z,6.33
2018-03-31T02:59:52.751Z,6.07
2018-03-31T03:02:20.210Z,5.87
2018-03-31T03:04:46.957Z,5.43
2018-03-31T03:07:14.954Z,5.97
2018-03-31T03:09:41.765Z,5.80
2018-03-31T03:12:08.505Z,5.50
2018-03-31T03:14:36.066Z,5.47
2018-03-31T03:17:02.809Z,6.00
2018-03-31T03:19:29.652Z,5.50
2018-03-31T03:21:56.707Z,5.87
2018-03-31T03:24:23.447Z,5.23
2018-03-31T03:26:50.290Z,5.83
2018-03-31T03:29:17.438Z,5.47
2018-03-31T03:31:44.181Z,4.53
2018-03-31T03:34:11.848Z,5.30
2018-03-31T03:36:38.690Z,6.20
2018-03-31T03:39:05.427Z,6.47
2018-03-31T03:41:33.499Z,5.33
2018-03-31T03:44:00.239Z,5.90
2018-03-31T03:46:26.923Z,5.70
2018-03-31T03:48:53.722Z,6.33
2018-03-31T03:51:21.386Z,6.30
2018-03-31T03:53:48.132Z,6.60
2018-03-31T03:56:15.792Z,5.73
2018-03-31T03:58:42.838Z,6.33
2018-03-31T04:01:09.585Z,7.03
2018-03-31T04:03:36.319Z,6.20
2018-03-31T04:06:03.984Z,7.57
2018-03-31T04:08:30.829Z,6.30
2018-03-31T04:10:57.575Z,7.70
2018-03-31T04:13:24.309Z,5.57
2018-03-31T04:15:51.052Z,5.50
2018-03-31T04:18:19.227Z,6.17
2018-03-31T04:20:45.967Z,7.27
2018-03-31T04:23:12.714Z,6.00
2018-03-31T04:25:40.066Z,5.97
2018-03-31T04:28:07.215Z,7.00
2018-03-31T04:30:33.957Z,8.00
2018-03-31T04:33:00.704Z,8.20
2018-03-31T04:35:27.853Z,7.80
2018-03-31T04:37:54.590Z,8.57
2018-03-31T04:40:21.434Z,7.67
2018-03-31T04:42:48.133Z,7.90
2018-03-31T04:45:15.354Z,6.63
2018-03-31T04:47:42.171Z,7.70
2018-03-31T04:50:08.916Z,7.50
2018-03-31T04:52:35.704Z,7.20
2018-03-31T04:55:02.496Z,7.27
2018-03-31T04:57:29.284Z,8.20
2018-03-31T04:59:57.355Z,6.73
2018-03-31T05:02:24.209Z,6.63
2018-03-31T05:04:52.329Z,6.60
2018-03-31T05:07:19.376Z,7.07
2018-03-31T05:09:46.124Z,7.00
2018-03-31T05:12:12.968Z,6.63
2018-03-31T05:14:39.811Z,2.27
2018-03-31T05:17:06.547Z,2.60
2018-03-31T05:19:33.390Z,4.73
2018-03-31T05:22:01.156Z,3.93
2018-03-31T05:24:28.001Z,3.53
2018-03-31T05:26:54.741Z,3.73
2018-03-31T05:29:22.506Z,2.33
2018-03-31T05:31:51.502Z,4.30
2018-03-31T05:34:18.248Z,2.27
2018-03-31T05:36:48.051Z,3.30
2018-03-31T05:39:15.821Z,3.10
2018-03-31T05:41:44.616Z,2.50
2018-03-31T05:44:11.351Z,2.57
2018-03-31T05:46:38.092Z,2.90
2018-03-31T05:49:04.839Z,3.67
2018-03-31T05:51:31.682Z,2.47
2018-03-31T05:53:58.426Z,3.67
2018-03-31T05:56:25.159Z,4.87
2018-03-31T05:58:51.907Z,3.40
2018-03-31T06:01:20.737Z,3.17
2018-03-31T06:03:48.765Z,1.97
2018-03-31T06:06:15.449Z,2.30
2018-03-31T06:08:42.246Z,1.70
2018-03-31T06:11:09.089Z,2.90
2018-03-31T06:13:37.952Z,2.67
2018-03-31T06:16:04.826Z,2.83
2018-03-31T06:18:32.499Z,3.30
2018-03-31T06:21:00.874Z,2.60
2018-03-31T06:23:27.968Z,2.87
2018-03-31T06:25:54.761Z,2.57
2018-03-31T06:28:21.812Z,2.97
2018-03-31T06:30:48.864Z,3.07
2018-03-31T06:33:17.032Z,3.13
2018-03-31T06:35:43.780Z,3.47
2018-03-31T06:38:10.514Z,2.63
2018-03-31T06:40:37.256Z,2.90
2018-03-31T06:43:04.100Z,3.17
2018-03-31T06:45:31.662Z,3.37
2018-03-31T06:47:58.504Z,4.07
2018-03-31T06:50:26.577Z,3.50
2018-03-31T06:52:53.420Z,2.80
2018-03-31T06:55:21.600Z,3.10
2018-03-31T06:57:48.345Z,3.20
2018-03-31T07:00:16.679Z,4.50
2018-03-31T07:02:43.458Z,3.10
2018-03-31T07:05:10.204Z,3.37
2018-03-31T07:07:37.861Z,3.97
2018-03-31T07:10:04.602Z,5.83
2018-03-31T07:12:31.447Z,3.57
2018-03-31T07:14:59.519Z,25.20
2018-03-31T07:17:28.579Z,32.67
2018-03-31T07:19:55.260Z,28.53
2018-03-31T07:22:22.028Z,5.77
2018-03-31T07:24:48.791Z,7.57
2018-03-31T07:27:15.527Z,5.33
2018-03-31T07:29:42.424Z,3.47
2018-03-31T07:32:10.211Z,3.10
2018-03-31T07:34:37.033Z,3.70
2018-03-31T07:37:04.906Z,3.80
2018-03-31T07:39:33.387Z,3.30
2018-03-31T07:42:00.538Z,3.70
2018-03-31T07:44:27.277Z,3.20
2018-03-31T07:46:54.019Z,3.77
2018-03-31T07:49:22.091Z,3.40
2018-03-31T07:51:50.438Z,4.10
2018-03-31T07:54:18.540Z,3.30
2018-03-31T07:56:45.386Z,2.77
2018-03-31T07:59:13.405Z,2.87
2018-03-31T08:01:40.204Z,2.50
2018-03-31T08:04:07.908Z,2.70
2018-03-31T08:06:34.603Z,2.70
2018-03-31T08:09:01.351Z,2.60
2018-03-31T08:11:28.087Z,2.30
2018-03-31T08:13:54.827Z,2.60
2018-03-31T08:16:21.574Z,2.97
2018-03-31T08:18:48.309Z,2.67
2018-03-31T08:21:15.057Z,2.77
2018-03-31T08:23:41.798Z,2.93
2018-03-31T08:26:08.841Z,2.30
2018-03-31T08:28:35.991Z,2.80
2018-03-31T08:31:02.673Z,2.50
2018-03-31T08:33:29.478Z,2.53
2018-03-31T08:35:56.323Z,2.57
2018-03-31T08:38:23.474Z,2.13
2018-03-31T08:40:50.319Z,2.40
2018-03-31T08:43:17.161Z,2.37
2018-03-31T08:45:44.005Z,2.23
2018-03-31T08:48:10.740Z,3.30
2018-03-31T08:50:38.506Z,2.60
2018-03-31T08:53:05.248Z,2.90
2018-03-31T08:55:31.993Z,2.50
2018-03-31T08:57:59.803Z,2.50
2018-03-31T09:00:26.603Z,2.67
2018-03-31T09:02:53.756Z,2.87
2018-03-31T09:05:20.489Z,2.73
2018-03-31T09:07:47.538Z,2.93
2018-03-31T09:10:14.285Z,2.53
2018-03-31T09:12:40.998Z,2.70
2018-03-31T09:15:07.767Z,3.03
2018-03-31T09:17:34.513Z,2.63
2018-03-31T09:20:01.353Z,2.80
2018-03-31T09:22:28.198Z,3.20
2018-03-31T09:24:57.648Z,2.67
2018-03-31T09:27:25.059Z,2.50
2018-03-31T09:29:56.504Z,2.80
2018-03-31T09:32:23.256Z,3.30
2018-03-31T09:34:50.096Z,2.80
2018-03-31T09:37:16.831Z,2.80
2018-03-31T09:39:44.802Z,2.73
2018-03-31T09:42:11.645Z,2.60
2018-03-31T09:44:38.393Z,2.90
2018-03-31T09:47:05.129Z,3.47
2018-03-31T09:49:31.869Z,2.73
2018-03-31T09:52:00.576Z,2.40
2018-03-31T09:54:27.501Z,2.60
2018-03-31T09:56:54.762Z,2.70
2018-03-31T09:59:22.114Z,2.80
2018-03-31T10:01:48.852Z,2.67
2018-03-31T10:04:15.631Z,2.87
2018-03-31T10:06:44.183Z,2.80
2018-03-31T10:09:11.894Z,2.90
2018-03-31T10:11:38.685Z,2.60
2018-03-31T10:14:06.861Z,2.60
2018-03-31T10:16:33.605Z,2.50
2018-03-31T10:19:00.444Z,2.87
2018-03-31T10:21:27.191Z,2.47
2018-03-31T10:23:54.133Z,2.80
2018-03-31T10:26:20.879Z,2.90
2018-03-31T10:28:48.338Z,3.03
2018-03-31T10:31:15.073Z,3.03
2018-03-31T10:33:42.026Z,4.83
2018-03-31T10:36:08.868Z,3.13
2018-03-31T10:38:36.117Z,3.60
2018-03-31T10:41:04.189Z,6.80
2018-03-31T10:43:30.935Z,2.90
2018-03-31T10:45:59.011Z,2.73
2018-03-31T10:48:25.852Z,2.50
2018-03-31T10:50:52.705Z,2.70
2018-03-31T10:53:21.320Z,2.80
2018-03-31T10:55:48.119Z,2.47
2018-03-31T10:58:14.902Z,2.80
2018-03-31T11:00:43.080Z,2.80
2018-03-31T11:03:09.879Z,2.63
2018-03-31T11:05:38.107Z,2.60
2018-03-31T11:08:05.000Z,2.50
2018-03-31T11:10:31.746Z,4.67
2018-03-31T11:12:59.819Z,2.80
2018-03-31T11:15:27.374Z,2.20
2018-03-31T11:17:54.120Z,2.17
2018-03-31T11:20:21.367Z,2.30
2018-03-31T11:22:49.201Z,2.10
2018-03-31T11:25:15.979Z,2.40
2018-03-31T11:27:42.724Z,2.30
2018-03-31T11:30:09.569Z,2.60
2018-03-31T11:32:37.431Z,2.20
2018-03-31T11:35:04.178Z,1.80
2018-03-31T11:37:32.092Z,2.00
2018-03-31T11:39:58.882Z,2.33
2018-03-31T11:42:26.737Z,2.30
2018-03-31T11:44:53.495Z,2.50
2018-03-31T11:47:20.240Z,2.00
2018-03-31T11:49:46.977Z,1.87
2018-03-31T11:52:17.847Z,2.13
2018-03-31T11:54:45.378Z,2.40
2018-03-31T11:59:45.825Z,3.20
2018-03-31T12:02:12.671Z,3.10
2018-03-31T12:04:39.403Z,3.50
2018-03-31T12:07:06.095Z,3.23
2018-03-31T12:09:34.797Z,3.90
2018-03-31T12:12:01.583Z,4.20
2018-03-31T12:14:28.317Z,3.27
2018-03-31T12:16:55.059Z,3.80
2018-03-31T12:19:23.553Z,4.03
2018-03-31T12:21:51.138Z,11.63
2018-03-31T12:24:18.455Z,3.60
2018-03-31T12:26:45.812Z,4.53
2018-03-31T12:29:12.563Z,4.87
2018-03-31T12:31:39.710Z,4.10
2018-03-31T12:34:07.058Z,3.77
2018-03-31T12:36:33.903Z,3.47
2018-03-31T12:39:00.741Z,3.23
2018-03-31T12:41:27.589Z,2.80
2018-03-31T12:43:54.331Z,2.43
2018-03-31T12:46:27.832Z,3.20
2018-03-31T12:48:55.391Z,3.37
2018-03-31T12:51:22.543Z,2.10
2018-03-31T12:53:49.796Z,2.97
2018-03-31T12:56:24.985Z,3.00
2018-03-31T12:58:55.985Z,3.23
2018-03-31T13:01:22.820Z,3.43
2018-03-31T13:03:49.569Z,2.57
2018-03-31T13:06:16.304Z,1.90
2018-03-31T13:08:43.152Z,1.70
2018-03-31T13:11:10.098Z,1.90
2018-03-31T13:13:37.250Z,2.00
2018-03-31T13:16:03.989Z,1.83
2018-03-31T13:18:30.726Z,2.37
2018-03-31T13:20:57.579Z,2.50
2018-03-31T13:23:24.317Z,2.50
2018-03-31T13:25:51.258Z,1.97
2018-03-31T13:28:18.003Z,2.97
2018-03-31T13:30:45.252Z,3.03
2018-03-31T13:33:12.712Z,2.43
2018-03-31T13:35:39.554Z,2.67
2018-03-31T13:38:06.302Z,2.83
2018-03-31T13:40:35.113Z,3.53
2018-03-31T13:43:05.166Z,2.67
2018-03-31T13:45:34.820Z,2.40
2018-03-31T13:48:03.763Z,2.53
2018-03-31T13:50:31.583Z,2.77
2018-03-31T13:52:58.315Z,3.37
2018-03-31T13:55:25.221Z,3.47
2018-03-31T13:57:52.002Z,3.50
2018-03-31T14:00:18.745Z,2.77
2018-03-31T14:02:45.428Z,2.47
2018-03-31T14:05:12.227Z,3.17
2018-03-31T14:07:40.860Z,2.97
2018-03-31T14:10:08.846Z,2.47
2018-03-31T14:12:35.879Z,2.73
2018-03-31T14:15:02.784Z,2.97
2018-03-31T14:17:29.562Z,2.00
2018-03-31T14:19:57.593Z,2.10
2018-03-31T14:22:24.268Z,1.90
2018-03-31T14:24:51.174Z,2.20
2018-03-31T14:27:21.887Z,2.10
2018-03-31T14:29:49.164Z,2.10
2018-03-31T14:32:23.719Z,2.63
2018-03-31T14:34:50.633Z,2.23
2018-03-31T14:37:22.434Z,2.40
2018-03-31T14:39:49.236Z,2.20
2018-03-31T14:42:21.210Z,2.50
2018-03-31T14:44:50.413Z,3.00
2018-03-31T14:47:20.987Z,3.13
2018-03-31T14:49:49.374Z,3.63
2018-03-31T14:52:18.879Z,3.53
2018-03-31T14:54:47.757Z,3.40
2018-03-31T14:57:15.975Z,3.50
2018-03-31T14:59:44.501Z,3.23
2018-03-31T15:02:12.980Z,2.13
2018-03-31T15:04:42.372Z,2.40
2018-03-31T15:07:20.685Z,2.03
2018-03-31T15:09:53.581Z,2.40
2018-03-31T15:12:30.685Z,2.27
2018-03-31T15:14:59.552Z,2.10
2018-03-31T15:17:33.448Z,2.07
2018-03-31T15:20:02.169Z,1.80
2018-03-31T15:22:29.121Z,1.80
2018-03-31T15:24:57.594Z,1.70
2018-03-31T15:27:24.343Z,3.00
2018-03-31T15:29:51.075Z,3.10
2018-03-31T15:32:21.073Z,2.60
2018-03-31T15:34:49.131Z,3.13
2018-03-31T15:37:20.416Z,2.50
2018-03-31T15:39:48.697Z,2.87
2018-03-31T15:42:15.540Z,2.67
2018-03-31T15:44:43.547Z,3.37
2018-03-31T15:47:10.352Z,3.73
2018-03-31T15:49:37.093Z,3.07
2018-03-31T15:52:04.650Z,2.53
2018-03-31T15:54:31.500Z,2.00
2018-03-31T15:56:58.340Z,1.97
2018-03-31T15:59:25.081Z,1.90
2018-03-31T16:01:51.840Z,2.00
2018-03-31T16:04:20.303Z,2.17
2018-03-31T16:06:48.280Z,2.13
2018-03-31T16:09:15.015Z,2.60
2018-03-31T16:11:42.063Z,2.00
2018-03-31T16:14:08.908Z,1.77
2018-03-31T16:16:37.493Z,1.83
2018-03-31T16:19:04.745Z,2.07
2018-03-31T16:21:31.427Z,2.00
2018-03-31T16:23:58.228Z,2.20
2018-03-31T16:26:24.969Z,1.93
2018-03-31T16:28:51.716Z,2.30
2018-03-31T16:31:20.125Z,2.27
2018-03-31T16:33:46.882Z,2.10
2018-03-31T16:36:13.782Z,2.13
2018-03-31T16:38:40.519Z,2.40
2018-03-31T16:41:07.880Z,2.33
2018-03-31T16:43:34.821Z,2.47
2018-03-31T16:46:01.815Z,2.50
2018-03-31T16:48:29.430Z,2.40
2018-03-31T16:51:12.117Z,2.90
2018-03-31T16:53:38.851Z,2.90
2018-03-31T16:56:05.630Z,2.40
2018-03-31T16:58:32.608Z,2.10
2018-03-31T17:00:59.424Z,2.17
2018-03-31T17:03:26.573Z,3.07
2018-03-31T17:05:53.420Z,2.30
2018-03-31T17:08:20.263Z,2.83
2018-03-31T17:10:47.510Z,2.67
2018-03-31T17:13:14.763Z,2.60
2018-03-31T17:15:41.610Z,2.03
2018-03-31T17:18:08.349Z,2.10
2018-03-31T17:20:35.096Z,2.03
2018-03-31T17:23:01.938Z,2.60
2018-03-31T17:25:28.676Z,2.27
2018-03-31T17:27:56.075Z,2.60
2018-03-31T17:30:22.778Z,2.47
2018-03-31T17:32:51.971Z,2.57
2018-03-31T17:35:18.714Z,3.00
2018-03-31T17:37:45.560Z,2.60
2018-03-31T17:40:12.810Z,2.83
2018-03-31T17:42:39.552Z,3.10
2018-03-31T17:45:06.394Z,3.10
2018-03-31T17:47:33.240Z,3.13
2018-03-31T17:49:59.985Z,3.43
2018-03-31T17:52:28.673Z,3.20
2018-03-31T17:54:58.234Z,3.00
2018-03-31T17:57:25.530Z,3.40
2018-03-31T17:59:52.988Z,3.27
2018-03-31T18:02:20.349Z,3.17
2018-03-31T18:04:47.031Z,3.20
2018-03-31T18:07:14.042Z,3.03
2018-03-31T18:09:42.822Z,3.33
2018-03-31T18:12:09.573Z,2.40
2018-03-31T18:14:36.719Z,2.73
2018-03-31T18:17:04.791Z,2.57
2018-03-31T18:19:31.527Z,2.33
2018-03-31T18:22:05.246Z,2.60
2018-03-31T18:24:35.176Z,3.20
2018-03-31T18:27:04.769Z,2.70
2018-03-31T18:29:36.185Z,3.77
2018-03-31T18:32:12.138Z,2.70
2018-03-31T18:34:42.282Z,2.50
2018-03-31T18:37:11.422Z,2.80
2018-03-31T18:39:45.202Z,2.50
2018-03-31T18:42:14.371Z,4.70
2018-03-31T18:44:44.111Z,8.03
2018-03-31T18:47:13.616Z,5.60
2018-03-31T18:49:42.570Z,2.40
2018-03-31T18:52:11.625Z,3.40
2018-03-31T18:54:42.979Z,2.90
2018-03-31T18:57:11.919Z,3.10
2018-03-31T18:59:42.101Z,2.80
2018-03-31T19:02:11.021Z,2.80
2018-03-31T19:04:41.396Z,2.40
2018-03-31T19:07:10.239Z,4.03
2018-03-31T19:09:43.972Z,2.97
2018-03-31T19:12:11.944Z,2.40
2018-03-31T19:14:43.229Z,2.63
2018-03-31T19:17:16.385Z,3.80
2018-03-31T19:19:45.133Z,3.93
2018-03-31T19:22:13.464Z,4.10
2018-03-31T19:24:47.777Z,4.50
2018-03-31T19:27:14.612Z,5.40
2018-03-31T19:29:41.354Z,7.17
2018-03-31T19:32:09.530Z,7.73
2018-03-31T19:34:37.604Z,6.00
2018-03-31T19:37:04.490Z,6.20
2018-03-31T19:39:50.199Z,5.90
2018-03-31T19:42:18.101Z,6.27
2018-03-31T19:44:46.523Z,5.77
2018-03-31T19:47:13.325Z,5.80
2018-03-31T19:49:40.066Z,5.90
2018-03-31T19:52:06.812Z,7.57
2018-03-31T19:54:33.857Z,12.10
2018-03-31T19:57:00.596Z,8.17
2018-03-31T19:59:27.342Z,5.27
2018-03-31T20:01:54.025Z,4.87
2018-03-31T20:04:20.761Z,6.53
2018-03-31T20:06:47.613Z,6.10
2018-03-31T20:09:14.718Z,5.90
2018-03-31T20:11:41.455Z,6.00
2018-03-31T20:14:08.811Z,6.57
2018-03-31T20:16:38.940Z,6.80
2018-03-31T20:19:05.673Z,7.37
2018-03-31T20:21:32.514Z,7.77
2018-03-31T20:23:59.258Z,6.00
2018-03-31T20:26:26.925Z,5.30
2018-03-31T20:28:53.669Z,5.50
2018-03-31T20:31:20.403Z,3.80
2018-03-31T20:33:47.554Z,4.00
2018-03-31T20:36:15.318Z,3.77
2018-03-31T20:38:42.067Z,2.97
2018-03-31T20:41:10.254Z,3.07
2018-03-31T20:43:38.967Z,3.00
2018-03-31T20:46:07.223Z,2.97
2018-03-31T20:48:37.719Z,3.13
2018-03-31T20:51:06.512Z,3.00
2018-03-31T20:53:33.695Z,2.80
2018-03-31T20:56:00.616Z,3.10
2018-03-31T20:58:27.358Z,3.10
2018-03-31T21:00:55.124Z,3.47
2018-03-31T21:03:21.875Z,3.53
2018-03-31T21:05:48.740Z,3.17
2018-03-31T21:08:15.758Z,3.10
2018-03-31T21:10:42.605Z,3.13
2018-03-31T21:13:09.341Z,3.43
2018-03-31T21:15:36.094Z,3.37
2018-03-31T21:18:02.935Z,3.63
2018-03-31T21:20:29.698Z,3.17
2018-03-31T21:22:56.368Z,3.43
2018-03-31T21:28:21.534Z,3.43
2018-03-31T21:30:48.377Z,3.70
2018-03-31T21:33:15.120Z,4.13
2018-03-31T21:35:42.277Z,4.00
2018-03-31T21:38:09.022Z,3.90
2018-03-31T21:40:35.860Z,3.60
2018-03-31T21:43:03.110Z,4.10
2018-03-31T21:45:31.181Z,4.33
2018-03-31T21:47:57.864Z,3.90
2018-03-31T21:50:26.412Z,4.43
2018-03-31T21:52:53.249Z,4.00
2018-03-31T21:55:19.995Z,3.97
2018-03-31T21:57:47.959Z,3.97
2018-03-31T22:00:14.702Z,4.40
2018-03-31T22:02:41.953Z,4.10
2018-03-31T22:05:12.790Z,3.90
2018-03-31T22:07:41.990Z,4.13
2018-03-31T22:10:10.472Z,3.93
2018-03-31T22:12:40.731Z,4.03
2018-03-31T22:15:13.791Z,4.10
2018-03-31T22:17:41.449Z,4.30
2018-03-31T22:20:08.142Z,4.47
2018-03-31T22:22:35.955Z,4.40
2018-03-31T22:25:02.701Z,4.57
2018-03-31T22:27:29.437Z,4.63
2018-03-31T22:29:57.155Z,4.73
2018-03-31T22:32:23.945Z,4.97
2018-03-31T22:34:50.692Z,5.33
2018-03-31T22:37:17.842Z,5.80
2018-03-31T22:39:44.578Z,5.70
2018-03-31T22:42:11.318Z,5.83
2018-03-31T22:44:38.471Z,6.13
2018-03-31T22:47:05.315Z,6.13
2018-03-31T22:49:32.157Z,6.03
2018-03-31T22:52:01.114Z,6.20
2018-03-31T22:54:27.996Z,5.80
2018-03-31T22:56:54.742Z,5.87
2018-03-31T22:59:22.815Z,5.97
2018-03-31T23:01:49.552Z,5.53
2018-03-31T23:04:16.237Z,5.57
2018-03-31T23:06:43.039Z,5.53
2018-03-31T23:09:10.701Z,6.10
2018-03-31T23:11:37.437Z,5.83
2018-03-31T23:14:04.282Z,5.47
2018-03-31T23:16:31.124Z,6.00
2018-03-31T23:18:58.179Z,6.37
2018-03-31T23:21:26.251Z,6.33
2018-03-31T23:23:52.992Z,6.17
2018-03-31T23:26:20.752Z,6.17
2018-03-31T23:28:47.494Z,6.33
2018-03-31T23:31:14.241Z,6.53
2018-03-31T23:33:42.788Z,6.77
2018-03-31T23:36:09.561Z,8.07
2018-03-31T23:38:36.244Z,6.73
2018-03-31T23:41:03.458Z,7.27
2018-03-31T23:43:30.194Z,6.97
2018-03-31T23:45:57.345Z,6.43
2018-03-31T23:48:24.086Z,6.70
2018-03-31T23:50:50.833Z,4.30
2018-03-31T23:53:17.578Z,6.00
2018-03-31T23:55:44.395Z,5.17
2018-03-31T23:58:11.161Z,5.73
